createdAt,value
2022-08-16T00:00:38.374Z,21.80
2022-08-16T00:05:48.591Z,21.72
2022-08-16T00:10:53.412Z,21.63
2022-08-16T00:15:57.869Z,21.55
2022-08-16T00:21:01.081Z,21.48
2022-08-16T00:26:35.345Z,21.46
2022-08-16T00:31:59.352Z,21.44
2022-08-16T00:36:56.278Z,21.46
2022-08-16T00:42:01.661Z,21.45
2022-08-16T00:47:11.113Z,21.42
2022-08-16T00:52:29.777Z,21.38
2022-08-16T00:57:58.302Z,21.37
2022-08-16T01:03:00.915Z,21.34
2022-08-16T01:08:35.026Z,21.31
2022-08-16T01:13:33.954Z,21.27
2022-08-16T01:18:45.273Z,21.23
2022-08-16T01:23:58.214Z,21.17
2022-08-16T01:29:09.911Z,21.14
2022-08-16T01:34:25.333Z,21.07
2022-08-16T01:39:35.458Z,21.03
2022-08-16T01:44:42.402Z,21.00
2022-08-16T01:50:42.483Z,20.97
2022-08-16T01:55:12.177Z,20.90
2022-08-16T02:00:19.949Z,20.84
2022-08-16T02:05:23.817Z,20.79
2022-08-16T02:10:28.850Z,20.73
2022-08-16T02:15:38.738Z,20.69
2022-08-16T02:20:53.514Z,20.64
2022-08-16T02:25:59.551Z,20.59
2022-08-16T02:31:07.547Z,20.57
2022-08-16T02:36:48.181Z,20.53
2022-08-16T02:41:43.026Z,20.49
2022-08-16T02:46:49.945Z,20.45
2022-08-16T02:51:54.711Z,20.39
2022-08-16T02:56:59.440Z,20.35
2022-08-16T03:02:08.837Z,20.32
2022-08-16T03:07:14.521Z,20.28
2022-08-16T03:12:30.152Z,20.25
2022-08-16T03:17:35.248Z,20.19
2022-08-16T03:22:39.324Z,20.13
2022-08-16T03:27:52.802Z,20.08
2022-08-16T03:32:57.540Z,20.02
2022-08-16T03:38:32.821Z,19.96
2022-08-16T03:43:51.085Z,19.88
2022-08-16T03:48:57.593Z,19.82
2022-08-16T03:54:01.705Z,19.78
2022-08-16T03:59:09.009Z,19.76
2022-08-16T04:04:25.156Z,19.69
2022-08-16T04:09:38.239Z,19.61
2022-08-16T04:14:46.863Z,19.60
2022-08-16T04:19:54.891Z,19.59
2022-08-16T04:25:02.262Z,19.53
2022-08-16T04:30:32.469Z,19.49
2022-08-16T04:35:39.546Z,19.48
2022-08-16T04:40:44.770Z,19.48
2022-08-16T04:46:00.190Z,19.48
2022-08-16T04:51:07.972Z,19.49
2022-08-16T04:56:22.092Z,19.50
2022-08-16T05:01:56.093Z,19.49
2022-08-16T05:06:53.317Z,19.50
2022-08-16T05:12:04.532Z,19.49
2022-08-16T05:17:10.371Z,19.52
2022-08-16T05:22:18.316Z,19.56
2022-08-16T05:27:27.788Z,19.59
2022-08-16T05:32:36.607Z,19.61
2022-08-16T05:37:50.636Z,19.64
2022-08-16T05:42:55.643Z,19.71
2022-08-16T05:48:02.596Z,19.75
2022-08-16T05:53:17.443Z,19.80
2022-08-16T05:58:38.354Z,19.84
2022-08-16T06:03:44.416Z,19.85
2022-08-16T06:08:54.677Z,19.94
2022-08-16T06:13:58.569Z,19.94
2022-08-16T06:19:13.250Z,19.93
2022-08-16T06:24:53.621Z,20.06
2022-08-16T06:29:49.981Z,20.14
2022-08-16T06:35:02.270Z,20.24
2022-08-16T06:40:12.924Z,20.33
2022-08-16T06:45:24.250Z,20.38
2022-08-16T06:50:50.280Z,20.40
2022-08-16T06:55:57.238Z,20.49
2022-08-16T07:01:01.277Z,20.61
2022-08-16T07:06:08.778Z,20.70
2022-08-16T07:11:20.791Z,20.79
2022-08-16T07:16:45.209Z,20.88
2022-08-16T07:21:59.104Z,21.03
2022-08-16T07:27:08.517Z,21.16
2022-08-16T07:32:13.347Z,21.27
2022-08-16T07:37:18.549Z,21.44
2022-08-16T07:42:49.265Z,21.60
2022-08-16T07:47:53.516Z,21.79
2022-08-16T07:53:02.004Z,21.93
2022-08-16T07:58:06.916Z,22.24
2022-08-16T08:03:22.460Z,22.60
2022-08-16T08:08:51.701Z,22.99
2022-08-16T08:14:03.091Z,23.24
2022-08-16T08:19:12.363Z,23.56
2022-08-16T08:24:19.753Z,23.96
2022-08-16T08:29:24.774Z,24.29
2022-08-16T08:34:42.070Z,24.56
2022-08-16T08:39:54.655Z,24.51
2022-08-16T08:44:59.599Z,24.74
2022-08-16T08:50:05.186Z,25.20
2022-08-16T08:55:14.729Z,25.40
2022-08-16T09:00:26.845Z,25.68
2022-08-16T09:05:35.922Z,25.79
2022-08-16T09:10:44.639Z,26.18
2022-08-16T09:15:49.235Z,26.54
2022-08-16T09:20:59.550Z,26.94
2022-08-16T09:26:46.035Z,27.07
2022-08-16T09:31:30.738Z,26.98
2022-08-16T09:36:34.401Z,26.91
2022-08-16T09:41:38.923Z,26.97
2022-08-16T09:46:48.065Z,27.36
2022-08-16T09:51:55.612Z,27.58
2022-08-16T09:57:02.967Z,28.36
2022-08-16T10:02:25.965Z,28.51
2022-08-16T10:07:43.970Z,28.77
2022-08-16T10:13:07.970Z,28.25
2022-08-16T10:19:00.390Z,28.15
2022-08-16T10:23:36.736Z,28.79
2022-08-16T10:28:43.405Z,28.98
2022-08-16T10:33:47.152Z,28.86
2022-08-16T10:38:52.064Z,28.87
2022-08-16T10:43:56.741Z,28.57
2022-08-16T10:49:01.038Z,28.85
2022-08-16T10:54:28.807Z,29.26
2022-08-16T10:59:45.932Z,29.45
2022-08-16T11:05:06.246Z,29.80
2022-08-16T11:15:37.047Z,29.95
2022-08-16T11:20:48.599Z,30.24
2022-08-16T11:26:16.658Z,30.49
2022-08-16T11:31:16.946Z,30.62
2022-08-16T11:36:27.430Z,30.77
2022-08-16T11:41:33.451Z,30.92
2022-08-16T11:46:44.392Z,30.84
2022-08-16T11:51:50.111Z,30.69
2022-08-16T11:56:57.046Z,30.92
2022-08-16T12:02:11.570Z,30.63
2022-08-16T12:07:25.734Z,30.62
2022-08-16T12:12:28.879Z,30.44
2022-08-16T12:17:33.831Z,30.44
2022-08-16T12:22:37.392Z,30.46
2022-08-16T12:27:40.890Z,30.27
2022-08-16T12:32:46.118Z,30.04
2022-08-16T12:37:58.705Z,30.46
2022-08-16T12:43:05.334Z,31.10
2022-08-16T12:48:35.522Z,31.27
2022-08-16T12:53:40.160Z,31.52
2022-08-16T12:58:48.637Z,31.85
2022-08-16T13:04:11.365Z,31.96
2022-08-16T13:09:26.330Z,31.84
2022-08-16T13:14:35.277Z,31.56
2022-08-16T13:20:07.097Z,31.33
2022-08-16T13:25:06.306Z,31.18
2022-08-16T13:30:21.839Z,31.41
2022-08-16T13:35:35.422Z,31.96
2022-08-16T13:40:46.000Z,31.69
2022-08-16T13:45:50.458Z,31.74
2022-08-16T13:50:58.709Z,31.79
2022-08-16T13:56:06.977Z,31.97
2022-08-16T14:01:13.878Z,31.93
2022-08-16T14:06:18.821Z,32.04
2022-08-16T14:11:22.122Z,31.85
2022-08-16T14:16:33.540Z,31.82
2022-08-16T14:21:40.946Z,32.00
2022-08-16T14:26:46.492Z,31.90
2022-08-16T14:31:53.717Z,32.07
2022-08-16T14:37:00.717Z,32.20
2022-08-16T14:42:09.103Z,32.06
2022-08-16T14:47:15.128Z,31.93
2022-08-16T14:52:52.051Z,31.51
2022-08-16T14:57:46.436Z,31.82
2022-08-16T15:02:54.149Z,31.71
2022-08-16T15:08:01.058Z,31.65
2022-08-16T15:13:06.502Z,31.57
2022-08-16T15:18:14.609Z,31.64
2022-08-16T15:23:28.758Z,31.37
2022-08-16T15:28:33.712Z,31.34
2022-08-16T15:33:50.755Z,31.44
2022-08-16T15:39:06.774Z,31.44
2022-08-16T15:44:25.624Z,31.32
2022-08-16T15:49:37.195Z,31.07
2022-08-16T15:54:52.552Z,30.78
2022-08-16T16:00:04.918Z,30.84
2022-08-16T16:05:19.655Z,30.93
2022-08-16T16:10:29.927Z,31.45
2022-08-16T16:15:35.950Z,31.16
2022-08-16T16:20:43.667Z,31.19
2022-08-16T16:25:48.681Z,31.40
2022-08-16T16:30:56.931Z,31.02
2022-08-16T16:36:03.917Z,31.40
2022-08-16T16:41:11.496Z,31.76
2022-08-16T16:46:42.074Z,31.72
2022-08-16T16:51:44.753Z,31.57
2022-08-16T16:56:54.315Z,31.16
2022-08-16T17:02:01.436Z,30.91
2022-08-16T17:07:24.347Z,30.48
2022-08-16T17:12:47.231Z,30.10
2022-08-16T17:23:16.261Z,29.66
2022-08-16T17:28:58.482Z,29.41
2022-08-16T17:33:54.748Z,29.12
2022-08-16T17:39:00.093Z,28.79
2022-08-16T17:39:28.150Z,29.76
2022-08-16T17:44:05.746Z,28.41
2022-08-16T17:49:08.852Z,28.08
2022-08-16T17:54:20.285Z,27.80
2022-08-16T17:59:36.960Z,27.69
2022-08-16T18:04:49.318Z,27.60
2022-08-16T18:09:53.096Z,27.42
2022-08-16T18:15:00.170Z,27.33
2022-08-16T18:20:04.346Z,27.07
2022-08-16T18:25:07.991Z,26.93
2022-08-16T18:30:17.658Z,26.68
2022-08-16T18:35:21.751Z,26.47
2022-08-16T18:40:25.035Z,26.28
2022-08-16T18:45:35.614Z,26.21
2022-08-16T18:50:59.681Z,26.09
2022-08-16T18:56:05.159Z,25.92
2022-08-16T19:01:09.729Z,25.80
2022-08-16T19:06:15.215Z,25.69
2022-08-16T19:11:23.356Z,25.50
2022-08-16T19:16:27.741Z,25.30
2022-08-16T19:21:30.820Z,25.12
2022-08-16T19:26:33.953Z,24.94
2022-08-16T19:31:38.410Z,24.78
2022-08-16T19:36:41.428Z,24.70
2022-08-16T19:41:53.027Z,24.65
2022-08-16T19:47:00.755Z,24.56
2022-08-16T19:52:15.033Z,24.47
2022-08-16T19:57:18.425Z,24.43
2022-08-16T20:02:35.633Z,24.40
2022-08-16T20:07:39.563Z,24.40
2022-08-16T20:12:44.126Z,24.33
2022-08-16T20:18:21.266Z,24.26
2022-08-16T20:23:28.358Z,24.18
2022-08-16T20:28:52.086Z,24.12
2022-08-16T20:34:05.958Z,24.07
2022-08-16T20:39:15.257Z,23.94
2022-08-16T20:44:23.022Z,23.81
2022-08-16T20:49:35.574Z,23.74
2022-08-16T20:54:39.203Z,23.71
2022-08-16T20:59:45.605Z,23.67
2022-08-16T21:05:02.089Z,23.67
2022-08-16T21:10:14.624Z,23.68
2022-08-16T21:15:18.172Z,23.66
2022-08-16T21:20:25.405Z,23.63
2022-08-16T21:25:32.222Z,23.53
2022-08-16T21:30:35.829Z,23.51
2022-08-16T21:35:41.274Z,23.53
2022-08-16T21:40:44.556Z,23.54
2022-08-16T21:45:48.788Z,23.47
2022-08-16T21:51:02.446Z,23.40
2022-08-16T21:56:06.774Z,23.38
2022-08-16T22:01:13.638Z,23.38
2022-08-16T22:06:18.183Z,23.36
2022-08-16T22:11:23.224Z,23.32
2022-08-16T22:16:27.284Z,23.30
2022-08-16T22:21:32.869Z,23.26
2022-08-16T22:26:42.827Z,23.27
2022-08-16T22:31:45.942Z,23.29
2022-08-16T22:36:51.096Z,23.26
2022-08-16T22:41:54.590Z,23.22
2022-08-16T22:46:57.775Z,23.16
2022-08-16T22:52:07.281Z,23.11
2022-08-16T22:57:10.826Z,23.08
2022-08-16T23:02:14.942Z,23.04
2022-08-16T23:07:19.608Z,23.03
2022-08-16T23:12:29.195Z,23.01
2022-08-16T23:17:33.757Z,22.96
2022-08-16T23:23:20.983Z,22.92
2022-08-16T23:28:08.112Z,22.83
2022-08-16T23:33:13.494Z,22.69
2022-08-16T23:38:37.665Z,22.55
2022-08-16T23:43:43.553Z,22.51
2022-08-16T23:50:01.304Z,22.55
2022-08-16T23:54:11.844Z,22.54
2022-08-16T23:59:14.843Z,22.53
